Gillett, Wisconsin
Current Conditions -  °F | °C
As of 1:15 AM on Friday 19 Dec 2014 (Local Time) from KEZS Reporting Station
Clear Clear  
Wind Chill: 18°   Ceiling: Unl
Heat Index: 18°   Visibility: 10mi
Dew Point: 16°   Wind: 0mph
Humidity: 90%   Direction: NA
Pressure: 30.27"   Gusts: NA
Location:  44.89°N, 88.31°W
Report Text: KEZS 190715Z AUTO 00000KT 10SM CLR M08/M09 A3027 RMK AO2 T10761090
Loading
Personal Weather Stations






























Interactive Weather Map New forecast layout! Learn more

10-Day Weather Forecast

Advertisements
Track Severe Weather on mobile